Time;durP1;ratioP1;P1;durP2;ratioP2;P2;SDS_P1;SDS_P2;PMS_P1;PMS_P2;Temp;Humidity;BMP_temperature;BMP_pressure;BME280_temperature;BME280_humidity;BME280_pressure;Samples;Min_cycle;Max_cycle;Signal;HPM_P1;HPM_P2
2023/06/27 00:01:04;;;;;;;;;;;;;;;17.91;60.02;100729.91;107500;1251;97908;-68
2023/06/27 00:03:51;;;;;;;;;;;;;;;17.87;60.06;100725.90;107469;1251;97819;-67
2023/06/27 00:06:20;;;;;;;;;;;;;;;17.83;59.99;100724.13;107527;1251;111802;-66
2023/06/27 00:08:49;;;;;;;;;;;;;;;17.79;60.04;100723.67;107658;1253;110105;-68
2023/06/27 00:11:17;;;;;;;;;;;;;;;17.77;59.88;100715.83;107662;1255;108245;-69
2023/06/27 00:13:45;;;;;;;;;;;;;;;17.75;60.01;100713.64;107606;1255;97943;-66
2023/06/27 00:16:14;;;;;;;;;;;;;;;17.73;60.17;100707.02;107654;1254;97932;-67
2023/06/27 00:18:47;;;;;;;;;;;;;;;17.69;59.86;100704.00;107606;1251;111780;-67
2023/06/27 00:21:17;;;;;;;;;;;;;;;17.64;60.18;100697.55;107682;1251;109648;-67
2023/06/27 00:23:48;;;;;;;;;;;;;;;17.64;60.89;100700.58;107504;1251;107798;-67
2023/06/27 00:26:16;;;;;;;;;;;;;;;17.65;61.05;100696.15;107477;1251;97799;-67
2023/06/27 00:28:45;;;;;;;;;;;;;;;17.63;60.78;100695.15;107494;1251;97893;-67
2023/06/27 00:31:13;;;;;;;;;;;;;;;17.61;60.62;100696.80;107616;1251;111581;-66
2023/06/27 00:33:41;;;;;;;;;;;;;;;17.59;60.87;100698.52;107509;1251;108931;-66
2023/06/27 00:36:09;;;;;;;;;;;;;;;17.56;60.63;100704.19;107479;1251;108453;-68
2023/06/27 00:38:38;;;;;;;;;;;;;;;17.50;60.37;100704.10;107489;1251;97819;-67
2023/06/27 00:41:06;;;;;;;;;;;;;;;17.45;60.50;100713.20;107486;1250;97720;-68
2023/06/27 00:43:34;;;;;;;;;;;;;;;17.41;60.64;100711.02;107527;1251;111311;-68
2023/06/27 00:46:05;;;;;;;;;;;;;;;17.35;60.81;100706.75;107624;1250;109978;-67
2023/06/27 00:48:34;;;;;;;;;;;;;;;17.31;61.16;100703.82;107564;1252;108188;-67
2023/06/27 00:51:03;;;;;;;;;;;;;;;17.28;61.34;100704.49;107662;1252;97886;-68
2023/06/27 00:53:32;;;;;;;;;;;;;;;17.26;61.25;100703.73;107663;1254;97832;-67
2023/06/27 00:56:01;;;;;;;;;;;;;;;17.20;61.48;100705.05;107659;1251;111800;-67
2023/06/27 00:58:32;;;;;;;;;;;;;;;17.16;61.94;100705.90;107589;1251;109522;-67
2023/06/27 01:01:00;;;;;;;;;;;;;;;17.13;61.96;100705.98;107494;1251;108511;-67
2023/06/27 01:03:32;;;;;;;;;;;;;;;17.12;62.66;100706.66;107488;1251;97812;-67
2023/06/27 01:06:07;;;;;;;;;;;;;;;17.09;63.11;100705.55;107620;1251;97754;-66
2023/06/27 01:08:40;;;;;;;;;;;;;;;17.08;63.36;100708.52;107448;1251;110499;-68
2023/06/27 01:11:15;;;;;;;;;;;;;;;17.04;63.73;100707.70;107642;1251;108645;-67
2023/06/27 01:13:47;;;;;;;;;;;;;;;17.03;63.49;100709.97;107570;1254;107764;-67
2023/06/27 01:16:16;;;;;;;;;;;;;;;17.03;63.50;100707.42;107475;1251;97801;-70
2023/06/27 01:18:45;;;;;;;;;;;;;;;17.07;63.65;100709.16;107611;1251;97739;-66
2023/06/27 01:21:16;;;;;;;;;;;;;;;17.11;63.66;100713.80;107676;1251;111380;-67
2023/06/27 01:23:44;;;;;;;;;;;;;;;17.12;63.73;100710.43;107485;1251;109335;-67
2023/06/27 01:26:13;;;;;;;;;;;;;;;17.10;64.34;100708.47;107472;1251;107591;-66
2023/06/27 01:28:42;;;;;;;;;;;;;;;17.04;64.65;100711.96;107490;1251;97899;-67
2023/06/27 01:31:13;;;;;;;;;;;;;;;17.01;64.53;100707.00;107506;1254;97692;-68
2023/06/27 01:34:02;;;;;;;;;;;;;;;17.01;64.64;100711.86;107534;1251;111771;-67
2023/06/27 01:36:54;;;;;;;;;;;;;;;17.05;64.70;100712.52;107507;1251;109267;-67
2023/06/27 01:39:32;;;;;;;;;;;;;;;17.07;64.89;100708.41;107556;1251;108468;-67
2023/06/27 01:42:04;;;;;;;;;;;;;;;17.12;64.74;100714.56;107472;1251;97727;-67
2023/06/27 01:44:33;;;;;;;;;;;;;;;17.15;64.63;100709.45;107499;1251;97684;-67
2023/06/27 01:47:02;;;;;;;;;;;;;;;17.13;64.67;100708.27;107474;1251;109847;-67
2023/06/27 01:49:30;;;;;;;;;;;;;;;17.12;64.73;100710.19;107601;1251;108910;-69
2023/06/27 01:51:58;;;;;;;;;;;;;;;17.11;64.58;100709.38;107538;1251;108180;-67
2023/06/27 01:54:28;;;;;;;;;;;;;;;17.10;64.59;100706.88;107530;1251;97808;-66
2023/06/27 01:56:56;;;;;;;;;;;;;;;17.07;64.76;100707.20;107493;1251;97809;-68
2023/06/27 01:59:25;;;;;;;;;;;;;;;17.03;64.75;100708.14;107502;1254;112039;-66
2023/06/27 02:01:53;;;;;;;;;;;;;;;17.01;64.83;100705.10;107649;1251;109028;-67
2023/06/27 02:04:21;;;;;;;;;;;;;;;17.01;64.88;100701.40;107604;1251;108072;-66
2023/06/27 02:06:49;;;;;;;;;;;;;;;16.97;65.52;100701.66;107498;1251;97801;-67
2023/06/27 02:09:17;;;;;;;;;;;;;;;16.87;65.27;100704.54;107549;1250;97883;-67
2023/06/27 02:11:46;;;;;;;;;;;;;;;16.84;65.37;100702.23;107678;1251;111903;-67
2023/06/27 02:14:14;;;;;;;;;;;;;;;16.79;65.19;100703.48;107509;1252;110042;-67
2023/06/27 02:16:42;;;;;;;;;;;;;;;16.72;65.21;100700.48;107593;1251;108299;-66
2023/06/27 02:19:10;;;;;;;;;;;;;;;16.69;65.16;100700.52;107580;1254;97820;-67
2023/06/27 02:21:39;;;;;;;;;;;;;;;16.65;65.12;100702.36;107717;1251;97787;-66
2023/06/27 02:24:07;;;;;;;;;;;;;;;16.63;65.09;100699.39;107535;1251;110817;-67
2023/06/27 02:26:37;;;;;;;;;;;;;;;16.60;64.96;100703.17;107493;1254;109635;-68
2023/06/27 02:29:05;;;;;;;;;;;;;;;16.56;64.76;100703.98;107576;1254;108504;-67
2023/06/27 02:31:33;;;;;;;;;;;;;;;16.53;64.77;100703.08;107508;1255;97858;-69
2023/06/27 02:34:01;;;;;;;;;;;;;;;16.52;64.82;100700.27;107632;1251;97818;-67
2023/06/27 02:36:32;;;;;;;;;;;;;;;16.51;65.00;100700.97;107548;1251;111910;-67
2023/06/27 02:39:00;;;;;;;;;;;;;;;16.47;65.43;100700.10;107480;1254;111147;-66
2023/06/27 02:41:29;;;;;;;;;;;;;;;16.44;65.86;100701.21;107620;1251;108645;-67
2023/06/27 02:43:57;;;;;;;;;;;;;;;16.41;65.68;100699.05;107607;1251;97845;-66
2023/06/27 02:46:27;;;;;;;;;;;;;;;16.38;65.80;100697.13;107700;1252;97698;-67
2023/06/27 02:48:55;;;;;;;;;;;;;;;16.36;65.69;100695.41;107551;1254;111017;-67
2023/06/27 02:51:25;;;;;;;;;;;;;;;16.35;65.86;100695.76;107619;1255;109994;-67
2023/06/27 02:53:53;;;;;;;;;;;;;;;16.34;66.19;100699.30;107558;1252;108357;-68
2023/06/27 02:56:22;;;;;;;;;;;;;;;16.33;66.18;100700.11;107628;1251;97913;-67
2023/06/27 02:58:50;;;;;;;;;;;;;;;16.33;66.17;100697.63;107497;1250;98056;-67
2023/06/27 03:01:18;;;;;;;;;;;;;;;16.33;65.98;100702.81;107510;1251;112136;-66
2023/06/27 03:03:47;;;;;;;;;;;;;;;16.31;66.29;100699.56;107566;1251;109588;-67
2023/06/27 03:06:15;;;;;;;;;;;;;;;16.32;66.45;100698.75;107646;1251;108292;-66
2023/06/27 03:08:44;;;;;;;;;;;;;;;16.33;66.47;100699.39;107491;1251;97908;-66
2023/06/27 03:11:12;;;;;;;;;;;;;;;16.34;66.46;100700.64;107583;1251;97806;-67
2023/06/27 03:13:40;;;;;;;;;;;;;;;16.38;66.70;100704.77;107667;1251;112083;-67
2023/06/27 03:16:09;;;;;;;;;;;;;;;16.40;66.46;100700.92;107639;1254;109629;-65
2023/06/27 03:18:38;;;;;;;;;;;;;;;16.41;66.84;100697.57;107588;1253;108485;-66
2023/06/27 03:21:06;;;;;;;;;;;;;;;16.42;66.80;100697.22;107591;1251;97791;-67
2023/06/27 03:23:35;;;;;;;;;;;;;;;16.46;66.78;100695.36;107648;1251;97975;-67
2023/06/27 03:26:03;;;;;;;;;;;;;;;16.50;66.86;100691.23;107525;1250;111952;-69
2023/06/27 03:28:31;;;;;;;;;;;;;;;16.55;66.76;100683.27;107681;1251;108279;-68
2023/06/27 03:31:00;;;;;;;;;;;;;;;16.61;67.37;100683.31;107574;1251;107450;-67
2023/06/27 03:33:28;;;;;;;;;;;;;;;16.63;67.21;100678.58;107616;1251;97831;-67
2023/06/27 03:35:57;;;;;;;;;;;;;;;16.69;67.02;100673.82;107500;1251;97672;-66
2023/06/27 03:38:25;;;;;;;;;;;;;;;16.78;66.84;100673.42;107538;1251;112095;-67
2023/06/27 03:40:54;;;;;;;;;;;;;;;16.87;66.59;100673.64;107570;1251;109969;-67
2023/06/27 03:43:25;;;;;;;;;;;;;;;16.95;66.43;100665.13;107520;1251;108458;-67
2023/06/27 03:45:53;;;;;;;;;;;;;;;17.04;66.23;100668.15;107607;1254;97941;-67
2023/06/27 03:48:25;;;;;;;;;;;;;;;17.14;66.08;100668.90;107607;1251;97729;-69
2023/06/27 03:50:53;;;;;;;;;;;;;;;17.25;65.87;100661.80;107510;1251;111312;-66
2023/06/27 03:53:22;;;;;;;;;;;;;;;17.36;65.70;100660.81;107523;1251;110111;-67
2023/06/27 03:55:50;;;;;;;;;;;;;;;17.46;65.68;100657.85;107617;1252;108684;-68
2023/06/27 03:58:19;;;;;;;;;;;;;;;17.56;65.67;100647.75;107611;1251;97898;-68
2023/06/27 04:00:51;;;;;;;;;;;;;;;17.67;65.55;100645.84;107610;1253;98043;-67
2023/06/27 04:03:20;;;;;;;;;;;;;;;17.78;65.15;100649.49;107646;1254;111487;-67
2023/06/27 04:05:50;;;;;;;;;;;;;;;17.86;64.91;100650.08;107657;1251;108095;-67
2023/06/27 04:08:18;;;;;;;;;;;;;;;17.96;64.89;100648.56;107582;1253;107281;-66
2023/06/27 04:10:46;;;;;;;;;;;;;;;18.05;64.56;100651.85;107743;1251;97709;-65
2023/06/27 04:13:14;;;;;;;;;;;;;;;18.14;64.23;100653.30;107577;1253;97841;-67
2023/06/27 04:15:42;;;;;;;;;;;;;;;18.23;64.07;100654.20;107521;1251;110767;-66
2023/06/27 04:18:13;;;;;;;;;;;;;;;18.33;64.25;100654.42;107549;1251;109302;-65
2023/06/27 04:20:42;;;;;;;;;;;;;;;18.42;63.86;100651.14;107621;1253;108636;-67
2023/06/27 04:23:10;;;;;;;;;;;;;;;18.50;63.50;100652.02;107571;1251;97918;-70
2023/06/27 04:25:43;;;;;;;;;;;;;;;18.57;63.11;100658.02;107502;1251;97717;-69
2023/06/27 04:28:12;;;;;;;;;;;;;;;18.64;62.78;100656.89;107521;1254;112559;-66
2023/06/27 04:30:40;;;;;;;;;;;;;;;18.70;62.47;100659.80;107522;1251;109792;-67
2023/06/27 04:33:13;;;;;;;;;;;;;;;18.76;61.98;100661.55;107509;1251;108632;-68
2023/06/27 04:35:44;;;;;;;;;;;;;;;18.80;61.13;100663.69;107497;1251;97921;-70
2023/06/27 04:38:14;;;;;;;;;;;;;;;18.84;60.64;100665.32;107550;1251;97927;-68
2023/06/27 04:40:42;;;;;;;;;;;;;;;18.88;59.50;100664.15;107630;1251;112205;-67
2023/06/27 04:43:11;;;;;;;;;;;;;;;18.93;59.70;100666.94;107636;1256;109324;-68
2023/06/27 04:45:41;;;;;;;;;;;;;;;18.99;59.72;100665.13;107578;1251;107906;-68
2023/06/27 04:48:10;;;;;;;;;;;;;;;19.05;59.50;100668.16;107649;1251;97853;-68
2023/06/27 04:50:38;;;;;;;;;;;;;;;19.10;58.73;100669.89;107555;1254;97831;-66
2023/06/27 04:53:06;;;;;;;;;;;;;;;19.16;58.35;100671.20;107645;1251;112187;-67
2023/06/27 04:55:34;;;;;;;;;;;;;;;19.21;57.44;100668.60;107624;1251;109820;-67
2023/06/27 04:58:02;;;;;;;;;;;;;;;19.25;56.10;100672.23;107529;1251;107173;-66
2023/06/27 05:00:31;;;;;;;;;;;;;;;19.34;56.11;100667.83;107668;1251;97947;-68
2023/06/27 05:02:59;;;;;;;;;;;;;;;19.41;55.74;100667.30;107556;1251;97918;-68
2023/06/27 05:05:36;;;;;;;;;;;;;;;19.47;55.47;100664.20;107560;1251;111197;-65
2023/06/27 05:08:05;;;;;;;;;;;;;;;19.52;55.42;100659.70;107640;1251;110057;-67
2023/06/27 05:10:34;;;;;;;;;;;;;;;19.57;55.62;100662.52;107559;1251;107224;-66
2023/06/27 05:13:02;;;;;;;;;;;;;;;19.63;55.74;100663.57;107657;1251;97909;-67
2023/06/27 05:15:30;;;;;;;;;;;;;;;19.70;55.91;100665.17;107542;1251;97883;-67
2023/06/27 05:18:01;;;;;;;;;;;;;;;19.76;55.62;100662.68;107537;1251;112172;-67
2023/06/27 05:20:30;;;;;;;;;;;;;;;19.79;55.75;100666.91;107522;1250;109803;-68
2023/06/27 05:22:59;;;;;;;;;;;;;;;19.85;55.56;100667.89;107567;1250;108140;-66
2023/06/27 05:25:28;;;;;;;;;;;;;;;19.90;55.51;100668.44;107573;1251;97717;-70
2023/06/27 05:27:56;;;;;;;;;;;;;;;19.95;55.01;100671.66;107621;1251;98184;-72
2023/06/27 05:30:25;;;;;;;;;;;;;;;20.00;54.81;100670.13;107604;1256;112230;-66
2023/06/27 05:32:54;;;;;;;;;;;;;;;20.05;54.49;100672.56;107568;1254;109788;-65
2023/06/27 05:35:22;;;;;;;;;;;;;;;20.11;54.69;100670.45;107680;1251;107779;-68
2023/06/27 05:37:51;;;;;;;;;;;;;;;20.18;54.64;100665.77;107509;1251;97832;-66
2023/06/27 05:40:21;;;;;;;;;;;;;;;20.24;54.63;100669.52;107576;1250;97704;-68
2023/06/27 05:42:49;;;;;;;;;;;;;;;20.31;54.64;100674.92;107605;1255;112244;-65
2023/06/27 05:45:18;;;;;;;;;;;;;;;20.38;54.51;100675.70;107668;1251;109707;-69
2023/06/27 05:47:46;;;;;;;;;;;;;;;20.43;54.40;100676.86;107514;1251;107772;-67
2023/06/27 05:50:14;;;;;;;;;;;;;;;20.52;54.66;100671.34;107535;1250;97816;-66
2023/06/27 05:52:42;;;;;;;;;;;;;;;20.61;54.70;100667.52;107607;1252;97883;-66
2023/06/27 05:55:11;;;;;;;;;;;;;;;20.72;54.70;100666.67;107644;1252;111414;-69
2023/06/27 05:57:39;;;;;;;;;;;;;;;20.80;54.53;100665.23;107667;1254;109884;-69
2023/06/27 06:00:14;;;;;;;;;;;;;;;20.86;54.27;100663.36;107582;1251;108245;-66
2023/06/27 06:02:45;;;;;;;;;;;;;;;20.92;53.78;100656.93;107628;1251;97688;-65
2023/06/27 06:05:18;;;;;;;;;;;;;;;20.98;53.63;100656.21;107654;1251;97773;-67
2023/06/27 06:07:49;;;;;;;;;;;;;;;21.06;53.83;100649.54;107590;1251;112048;-67
2023/06/27 06:10:18;;;;;;;;;;;;;;;21.14;53.88;100645.19;107527;1251;108357;-66
2023/06/27 06:12:47;;;;;;;;;;;;;;;21.23;53.38;100641.40;107560;1251;107821;-67
2023/06/27 06:15:15;;;;;;;;;;;;;;;21.32;52.92;100642.57;107443;1253;97813;-66
2023/06/27 06:17:46;;;;;;;;;;;;;;;21.40;52.69;100646.73;107638;1251;97723;-69
2023/06/27 06:20:14;;;;;;;;;;;;;;;21.49;52.43;100642.81;107664;1251;111877;-66
2023/06/27 06:22:43;;;;;;;;;;;;;;;21.56;51.80;100641.92;107568;1250;110104;-67
2023/06/27 06:25:11;;;;;;;;;;;;;;;21.63;51.03;100637.27;107482;1250;108272;-67
2023/06/27 06:27:39;;;;;;;;;;;;;;;21.70;50.75;100639.59;107503;1251;97828;-71
2023/06/27 06:30:08;;;;;;;;;;;;;;;21.78;50.75;100639.23;107499;1251;97825;-66
2023/06/27 06:32:36;;;;;;;;;;;;;;;21.83;50.11;100641.83;107620;1251;111481;-68
2023/06/27 06:35:05;;;;;;;;;;;;;;;21.89;49.67;100638.23;107642;1253;110413;-67
2023/06/27 06:37:33;;;;;;;;;;;;;;;21.97;50.08;100640.06;107544;1251;107929;-67
2023/06/27 06:40:02;;;;;;;;;;;;;;;22.06;50.21;100633.52;107680;1251;97838;-67
2023/06/27 06:42:30;;;;;;;;;;;;;;;22.14;49.15;100632.67;107535;1251;97812;-68
2023/06/27 06:44:59;;;;;;;;;;;;;;;22.21;48.08;100629.73;107522;1251;111668;-66
2023/06/27 06:47:27;;;;;;;;;;;;;;;22.30;47.81;100628.02;107589;1251;110168;-68
2023/06/27 06:49:55;;;;;;;;;;;;;;;22.38;47.11;100624.84;107534;1254;107774;-65
2023/06/27 06:52:23;;;;;;;;;;;;;;;22.46;46.17;100626.15;107510;1254;97806;-67
2023/06/27 06:54:52;;;;;;;;;;;;;;;22.55;46.28;100619.02;107589;1251;97654;-67
2023/06/27 06:57:20;;;;;;;;;;;;;;;22.65;46.83;100619.77;107612;1254;111370;-68
2023/06/27 06:59:48;;;;;;;;;;;;;;;22.75;46.60;100621.69;107634;1254;110017;-68
2023/06/27 07:02:16;;;;;;;;;;;;;;;22.80;45.15;100620.47;107650;1254;108372;-68
2023/06/27 07:04:44;;;;;;;;;;;;;;;22.90;44.77;100622.09;107613;1255;97804;-67
2023/06/27 07:07:13;;;;;;;;;;;;;;;23.02;43.92;100623.02;107659;1251;97784;-71
2023/06/27 07:09:49;;;;;;;;;;;;;;;23.15;43.37;100627.73;107600;1251;112560;-67
2023/06/27 07:12:17;;;;;;;;;;;;;;;23.24;43.21;100623.39;107614;1253;109037;-68
2023/06/27 07:14:45;;;;;;;;;;;;;;;23.33;43.31;100627.02;107571;1251;108306;-68
2023/06/27 07:17:14;;;;;;;;;;;;;;;23.40;43.86;100623.36;107658;1253;97841;-69
2023/06/27 07:19:42;;;;;;;;;;;;;;;23.46;43.16;100625.08;107628;1251;97810;-68
2023/06/27 07:22:10;;;;;;;;;;;;;;;23.55;42.75;100620.56;107618;1251;112484;-69
2023/06/27 07:24:57;;;;;;;;;;;;;;;23.65;41.74;100623.73;107605;1251;109908;-69
2023/06/27 07:27:25;;;;;;;;;;;;;;;23.73;41.68;100618.86;107593;1254;106735;-70
2023/06/27 07:29:56;;;;;;;;;;;;;;;23.82;41.65;100616.73;107612;1251;97697;-70
2023/06/27 07:32:25;;;;;;;;;;;;;;;23.90;41.19;100612.25;107651;1251;97812;-68
2023/06/27 07:34:54;;;;;;;;;;;;;;;23.99;40.75;100605.38;107663;1251;112178;-67
2023/06/27 07:37:22;;;;;;;;;;;;;;;24.10;41.26;100605.16;107579;1251;108601;-68
2023/06/27 07:39:50;;;;;;;;;;;;;;;24.19;41.35;100601.52;107566;1251;108910;-68
2023/06/27 07:42:18;;;;;;;;;;;;;;;24.26;41.33;100596.54;107543;1253;97995;-68
2023/06/27 07:44:47;;;;;;;;;;;;;;;24.35;41.75;100592.57;107661;1251;97691;-68
2023/06/27 07:47:15;;;;;;;;;;;;;;;24.44;40.61;100602.30;107631;1253;112338;-67
2023/06/27 07:49:44;;;;;;;;;;;;;;;24.55;40.46;100593.14;107575;1254;111536;-70
2023/06/27 07:52:12;;;;;;;;;;;;;;;24.65;40.05;100587.77;107624;1251;107630;-68
2023/06/27 07:54:42;;;;;;;;;;;;;;;24.77;39.60;100584.48;107656;1256;97850;-67
2023/06/27 07:57:10;;;;;;;;;;;;;;;24.83;39.20;100581.54;107597;1251;97834;-67
2023/06/27 07:59:38;;;;;;;;;;;;;;;24.87;39.05;100575.38;107626;1251;111602;-68
2023/06/27 08:02:06;;;;;;;;;;;;;;;24.94;38.97;100569.85;106962;1251;861167;-66
2023/06/27 08:04:35;;;;;;;;;;;;;;;25.00;38.40;100575.20;107580;1251;108465;-66
2023/06/27 08:07:04;;;;;;;;;;;;;;;25.08;38.82;100567.75;107621;1251;97924;-68
2023/06/27 08:09:32;;;;;;;;;;;;;;;25.13;37.61;100566.48;107694;1252;97661;-67
2023/06/27 08:12:00;;;;;;;;;;;;;;;25.20;37.92;100574.63;107611;1254;111409;-68
2023/06/27 08:14:31;;;;;;;;;;;;;;;25.30;37.74;100565.13;107636;1256;110623;-68
2023/06/27 08:17:00;;;;;;;;;;;;;;;25.37;36.70;100560.43;107634;1255;107286;-70
2023/06/27 08:19:29;;;;;;;;;;;;;;;25.45;36.89;100558.44;107622;1251;97790;-68
2023/06/27 08:21:57;;;;;;;;;;;;;;;25.55;37.04;100557.55;107604;1251;97697;-68
2023/06/27 08:24:25;;;;;;;;;;;;;;;25.66;37.43;100557.45;107634;1253;112162;-70
2023/06/27 08:26:55;;;;;;;;;;;;;;;25.78;37.19;100555.30;107648;1251;110040;-68
2023/06/27 08:29:25;;;;;;;;;;;;;;;25.88;36.58;100552.05;107592;1251;108163;-68
2023/06/27 08:31:58;;;;;;;;;;;;;;;26.01;37.09;100555.21;107611;1251;98015;-68
2023/06/27 08:34:29;;;;;;;;;;;;;;;26.16;36.33;100548.09;107606;1251;97848;-68
2023/06/27 08:36:57;;;;;;;;;;;;;;;26.22;35.58;100543.64;107585;1251;112003;-68
2023/06/27 08:39:26;;;;;;;;;;;;;;;26.33;36.00;100541.41;107625;1251;109593;-68
2023/06/27 08:41:55;;;;;;;;;;;;;;;26.46;36.24;100540.50;107588;1254;107606;-67
2023/06/27 08:44:24;;;;;;;;;;;;;;;26.57;36.26;100539.32;107599;1254;97803;-68
2023/06/27 08:46:52;;;;;;;;;;;;;;;26.73;35.45;100549.52;107700;1252;97707;-67
2023/06/27 08:49:22;;;;;;;;;;;;;;;26.80;35.37;100543.33;107598;1253;112067;-68
2023/06/27 08:51:53;;;;;;;;;;;;;;;26.85;35.96;100538.99;107641;1251;110033;-67
2023/06/27 08:54:30;;;;;;;;;;;;;;;26.97;36.16;100539.52;107641;1251;107540;-68
2023/06/27 08:57:00;;;;;;;;;;;;;;;27.06;34.75;100541.58;107617;1251;97928;-68
2023/06/27 08:59:31;;;;;;;;;;;;;;;27.11;33.45;100541.22;107638;1251;97919;-69
2023/06/27 09:02:00;;;;;;;;;;;;;;;27.19;31.91;100540.29;107605;1251;111846;-69
2023/06/27 09:04:31;;;;;;;;;;;;;;;27.28;30.70;100542.95;107594;1251;110072;-67
2023/06/27 09:07:00;;;;;;;;;;;;;;;27.41;31.34;100536.26;107587;1252;108336;-67
2023/06/27 09:09:30;;;;;;;;;;;;;;;27.53;31.21;100533.89;107594;1253;97811;-66
2023/06/27 09:12:00;;;;;;;;;;;;;;;27.67;31.03;100535.29;107637;1255;97915;-69
2023/06/27 09:14:28;;;;;;;;;;;;;;;27.81;31.19;100539.55;107653;1251;110366;-66
2023/06/27 09:16:56;;;;;;;;;;;;;;;28.03;30.94;100533.02;107647;1251;109742;-68
2023/06/27 09:19:27;;;;;;;;;;;;;;;28.26;31.74;100524.39;107630;1255;108442;-66
2023/06/27 09:21:56;;;;;;;;;;;;;;;28.54;31.58;100523.11;107704;1251;97812;-67
2023/06/27 09:24:25;;;;;;;;;;;;;;;28.82;31.87;100517.33;107590;1251;97816;-67
2023/06/27 09:26:53;;;;;;;;;;;;;;;29.05;30.10;100527.80;107674;1251;110989;-68
2023/06/27 09:29:29;;;;;;;;;;;;;;;29.19;30.01;100525.46;107624;1250;110118;-72
2023/06/27 09:32:07;;;;;;;;;;;;;;;29.39;29.53;100525.71;107631;1251;108631;-69
2023/06/27 09:34:36;;;;;;;;;;;;;;;29.59;29.42;100526.42;107649;1251;97831;-73
2023/06/27 09:37:04;;;;;;;;;;;;;;;29.80;29.53;100520.48;107631;1251;97663;-68
2023/06/27 09:39:35;;;;;;;;;;;;;;;30.10;29.73;100510.55;107554;1254;111030;-67
2023/06/27 09:42:04;;;;;;;;;;;;;;;30.45;29.48;100512.99;107564;1251;109256;-67
2023/06/27 09:44:32;;;;;;;;;;;;;;;30.75;29.08;100510.31;107610;1254;108411;-70
2023/06/27 09:47:01;;;;;;;;;;;;;;;31.08;28.91;100514.96;107558;1253;97858;-68
2023/06/27 09:49:30;;;;;;;;;;;;;;;31.28;28.24;100512.15;107620;1251;97700;-69
2023/06/27 09:52:03;;;;;;;;;;;;;;;31.46;28.14;100518.27;107580;1251;111921;-67
2023/06/27 09:54:31;;;;;;;;;;;;;;;31.40;27.35;100514.23;107587;1251;110175;-67
2023/06/27 09:56:59;;;;;;;;;;;;;;;31.70;28.60;100504.27;107553;1251;107552;-66
2023/06/27 09:59:29;;;;;;;;;;;;;;;32.16;27.58;100504.67;107559;1251;97819;-67
2023/06/27 10:01:57;;;;;;;;;;;;;;;32.31;26.26;100504.94;107575;1251;97716;-66
2023/06/27 10:04:25;;;;;;;;;;;;;;;32.22;26.87;100498.46;107531;1251;111583;-67
2023/06/27 10:06:56;;;;;;;;;;;;;;;32.52;27.12;100495.20;107560;1257;109074;-67
2023/06/27 10:09:25;;;;;;;;;;;;;;;32.81;26.26;100494.91;107608;1251;108055;-67
2023/06/27 10:11:53;;;;;;;;;;;;;;;33.07;26.60;100484.11;107537;1251;97840;-67
2023/06/27 10:14:21;;;;;;;;;;;;;;;33.43;26.36;100495.95;107559;1251;98503;-68
2023/06/27 10:16:52;;;;;;;;;;;;;;;33.55;25.21;100490.28;107557;1251;112105;-66
2023/06/27 10:19:21;;;;;;;;;;;;;;;33.49;25.42;100504.64;107589;1251;110173;-67
2023/06/27 10:21:51;;;;;;;;;;;;;;;33.45;25.32;100498.45;107545;1252;108711;-67
2023/06/27 10:24:19;;;;;;;;;;;;;;;33.38;25.16;100491.60;107614;1254;97833;-66
2023/06/27 10:26:54;;;;;;;;;;;;;;;33.84;25.78;100477.45;107616;1254;97866;-68
2023/06/27 10:29:31;;;;;;;;;;;;;;;34.78;25.34;100476.29;107652;1254;112482;-68
2023/06/27 10:32:00;;;;;;;;;;;;;;;35.53;24.53;100471.70;107650;1251;109681;-67
2023/06/27 10:34:37;;;;;;;;;;;;;;;36.16;24.11;100472.54;107595;1254;109437;-65
2023/06/27 10:37:10;;;;;;;;;;;;;;;36.78;23.66;100472.76;107575;1252;97835;-66
2023/06/27 10:39:42;;;;;;;;;;;;;;;37.32;22.21;100468.69;107624;1253;97713;-71
2023/06/27 10:42:19;;;;;;;;;;;;;;;37.30;22.14;100462.88;107657;1251;112017;-69
2023/06/27 10:44:53;;;;;;;;;;;;;;;37.03;22.42;100465.15;107634;1251;109913;-68
2023/06/27 10:47:26;;;;;;;;;;;;;;;37.29;21.20;100458.10;107584;1250;107513;-67
2023/06/27 10:50:08;;;;;;;;;;;;;;;37.48;20.99;100460.29;107585;1250;97828;-68
2023/06/27 10:52:38;;;;;;;;;;;;;;;37.90;21.09;100453.36;107550;1251;97022;-66
2023/06/27 10:55:18;;;;;;;;;;;;;;;38.45;20.56;100451.66;107666;1251;110884;-68
2023/06/27 10:57:50;;;;;;;;;;;;;;;38.85;19.23;100454.09;107651;1251;109994;-68
2023/06/27 11:00:22;;;;;;;;;;;;;;;39.21;18.54;100444.94;107608;1251;109291;-68
2023/06/27 11:02:54;;;;;;;;;;;;;;;39.53;18.00;100444.17;107524;1257;97809;-68
2023/06/27 11:05:59;;;;;;;;;;;;;;;39.62;17.67;100448.52;107562;1251;97824;-72
2023/06/27 11:08:28;;;;;;;;;;;;;;;39.85;16.80;100440.35;106989;1260;112254;-67
2023/06/27 11:10:59;;;;;;;;;;;;;;;39.72;17.14;100441.47;107546;1251;110182;-68
2023/06/27 11:13:28;;;;;;;;;;;;;;;39.69;16.89;100438.90;107628;1251;107591;-68
2023/06/27 11:15:57;;;;;;;;;;;;;;;39.86;16.74;100437.59;107640;1251;97825;-67
2023/06/27 11:18:25;;;;;;;;;;;;;;;40.33;16.11;100427.97;107623;1251;97825;-69
2023/06/27 11:20:55;;;;;;;;;;;;;;;40.26;15.76;100429.23;107582;1251;111959;-70
2023/06/27 11:23:25;;;;;;;;;;;;;;;39.78;16.97;100428.02;107668;1251;109646;-68
2023/06/27 11:25:54;;;;;;;;;;;;;;;40.02;16.90;100419.66;107598;1251;107833;-69
2023/06/27 11:28:24;;;;;;;;;;;;;;;39.92;16.67;100415.41;107597;1254;97857;-67
2023/06/27 11:31:00;;;;;;;;;;;;;;;39.83;16.76;100420.06;107591;1252;97781;-67
2023/06/27 11:33:33;;;;;;;;;;;;;;;39.69;17.21;100426.13;107645;1252;111279;-66
2023/06/27 11:36:03;;;;;;;;;;;;;;;39.16;17.36;100426.18;107657;1251;109845;-67
2023/06/27 11:38:31;;;;;;;;;;;;;;;38.51;17.42;100420.54;107645;1256;107467;-68
2023/06/27 11:41:00;;;;;;;;;;;;;;;37.95;18.18;100414.20;107607;1251;97893;-66
2023/06/27 11:43:31;;;;;;;;;;;;;;;37.47;18.92;100414.77;107664;1253;97790;-67
2023/06/27 11:46:00;;;;;;;;;;;;;;;37.43;19.09;100412.48;107674;1254;111742;-67
2023/06/27 11:48:31;;;;;;;;;;;;;;;37.44;18.91;100418.61;107631;1251;109738;-71
2023/06/27 11:51:07;;;;;;;;;;;;;;;36.91;18.85;100413.31;107595;1256;107246;-68
2023/06/27 11:53:36;;;;;;;;;;;;;;;36.00;19.19;100410.54;107621;1251;97810;-68
2023/06/27 11:56:08;;;;;;;;;;;;;;;35.42;20.15;100405.87;107622;1254;97815;-70
2023/06/27 11:58:52;;;;;;;;;;;;;;;35.67;20.85;100404.43;107580;1254;111773;-69
2023/06/27 12:01:24;;;;;;;;;;;;;;;35.95;21.07;100404.14;107606;1254;109180;-68
2023/06/27 12:03:52;;;;;;;;;;;;;;;35.92;20.28;100402.16;107587;1252;106433;-69
2023/06/27 12:06:24;;;;;;;;;;;;;;;36.01;20.39;100400.55;107599;1255;97813;-69
2023/06/27 12:08:53;;;;;;;;;;;;;;;36.01;20.65;100401.52;107616;1252;97803;-68
2023/06/27 12:11:34;;;;;;;;;;;;;;;36.60;20.56;100395.94;107599;1254;112853;-68
2023/06/27 12:14:04;;;;;;;;;;;;;;;37.76;20.49;100392.69;107643;1254;110358;-69
2023/06/27 12:16:33;;;;;;;;;;;;;;;38.77;19.60;100393.87;107641;1251;107553;-68
2023/06/27 12:19:05;;;;;;;;;;;;;;;39.81;18.07;100385.15;107627;1251;98293;-70
2023/06/27 12:21:37;;;;;;;;;;;;;;;40.59;18.30;100385.39;107598;1251;97749;-70
2023/06/27 12:24:07;;;;;;;;;;;;;;;41.15;16.76;100383.00;107583;1251;111834;-68
2023/06/27 12:26:36;;;;;;;;;;;;;;;41.41;15.98;100374.38;107603;1251;109762;-67
2023/06/27 12:29:05;;;;;;;;;;;;;;;41.43;16.55;100376.27;107604;1251;108145;-68
2023/06/27 12:31:37;;;;;;;;;;;;;;;41.02;16.82;100375.97;107566;1254;97905;-68
2023/06/27 12:34:05;;;;;;;;;;;;;;;40.43;17.02;100378.31;107627;1254;97824;-69